createdAt,value
2019-03-18T00:00:26.298Z,6.19
2019-03-18T00:01:26.517Z,6.14
2019-03-18T00:02:26.743Z,6.07
2019-03-18T00:03:26.966Z,6.09
2019-03-18T00:04:27.191Z,6.16
2019-03-18T00:05:27.413Z,6.09
2019-03-18T00:06:27.637Z,6.09
2019-03-18T00:07:27.859Z,6.01
2019-03-18T00:08:28.077Z,6.02
2019-03-18T00:09:28.302Z,5.90
2019-03-18T00:10:28.519Z,5.97
2019-03-18T00:11:28.742Z,6.04
2019-03-18T00:12:28.961Z,6.04
2019-03-18T00:13:29.188Z,6.01
2019-03-18T00:14:29.406Z,6.02
2019-03-18T00:15:29.628Z,6.08
2019-03-18T00:16:29.853Z,6.11
2019-03-18T00:17:30.072Z,6.05
2019-03-18T00:18:30.297Z,6.08
2019-03-18T00:19:30.516Z,6.04
2019-03-18T00:20:30.740Z,5.94
2019-03-18T00:21:30.961Z,6.09
2019-03-18T00:22:31.185Z,5.99
2019-03-18T00:23:31.408Z,5.98
2019-03-18T00:24:31.627Z,5.97
2019-03-18T00:25:31.849Z,5.93
2019-03-18T00:26:32.071Z,5.90
2019-03-18T00:27:32.297Z,5.61
2019-03-18T00:28:32.517Z,5.69
2019-03-18T00:29:32.739Z,5.71
2019-03-18T00:30:32.959Z,5.66
2019-03-18T00:31:33.182Z,5.62
2019-03-18T00:32:33.405Z,5.68
2019-03-18T00:33:33.629Z,5.61
2019-03-18T00:34:33.854Z,5.56
2019-03-18T00:35:34.079Z,5.65
2019-03-18T00:36:34.301Z,5.56
2019-03-18T00:37:34.523Z,5.56
2019-03-18T00:38:34.744Z,5.50
2019-03-18T00:39:34.965Z,5.46
2019-03-18T00:40:35.195Z,5.56
2019-03-18T00:41:35.412Z,5.61
2019-03-18T00:42:35.631Z,5.54
2019-03-18T00:43:35.857Z,5.51
2019-03-18T00:44:36.077Z,5.51
2019-03-18T00:45:36.304Z,5.57
2019-03-18T00:46:36.525Z,5.64
2019-03-18T00:47:36.743Z,5.59
2019-03-18T00:48:36.962Z,5.64
2019-03-18T00:49:37.185Z,5.64
2019-03-18T00:50:37.406Z,5.62
2019-03-18T00:51:37.628Z,5.65
2019-03-18T00:52:37.848Z,5.57
2019-03-18T00:53:38.069Z,5.57
2019-03-18T00:54:38.294Z,5.56
2019-03-18T00:55:38.515Z,5.68
2019-03-18T00:56:38.744Z,5.68
2019-03-18T00:57:38.967Z,5.51
2019-03-18T00:58:39.184Z,5.56
2019-03-18T00:59:39.402Z,5.59
2019-03-18T01:00:39.628Z,5.76
2019-03-18T01:01:39.850Z,5.73
2019-03-18T01:02:40.092Z,5.71
2019-03-18T01:03:40.295Z,5.71
2019-03-18T01:04:40.521Z,5.76
2019-03-18T01:05:40.741Z,5.76
2019-03-18T01:06:40.961Z,5.83
2019-03-18T01:07:41.184Z,5.87
2019-03-18T01:08:41.404Z,5.87
2019-03-18T01:09:41.624Z,5.91
2019-03-18T01:10:41.845Z,5.89
2019-03-18T01:11:42.069Z,5.99
2019-03-18T01:12:42.295Z,5.98
2019-03-18T01:13:42.514Z,6.04
2019-03-18T01:14:42.738Z,5.99
2019-03-18T01:15:42.961Z,6.07
2019-03-18T01:16:43.183Z,6.05
2019-03-18T01:17:43.402Z,6.01
2019-03-18T01:18:43.625Z,6.08
2019-03-18T01:19:43.847Z,6.16
2019-03-18T01:20:44.068Z,6.02
2019-03-18T01:21:44.289Z,5.98
2019-03-18T01:22:44.510Z,6.08
2019-03-18T01:23:44.734Z,6.20
2019-03-18T01:24:44.969Z,6.01
2019-03-18T01:25:45.178Z,6.12
2019-03-18T01:26:45.398Z,6.09
2019-03-18T01:27:45.620Z,6.16
2019-03-18T01:28:45.843Z,6.14
2019-03-18T01:29:46.063Z,6.04
2019-03-18T01:30:46.286Z,6.12
2019-03-18T01:31:46.511Z,6.09
2019-03-18T01:32:46.732Z,6.26
2019-03-18T01:33:46.955Z,6.19
2019-03-18T01:34:47.175Z,6.28
2019-03-18T01:35:47.403Z,6.27
2019-03-18T01:36:47.621Z,6.30
2019-03-18T01:37:47.841Z,6.28
2019-03-18T01:38:48.064Z,6.30
2019-03-18T01:39:48.291Z,6.35
2019-03-18T01:40:48.512Z,6.22
2019-03-18T01:41:48.731Z,6.38
2019-03-18T01:42:48.957Z,6.35
2019-03-18T01:43:49.180Z,6.26
2019-03-18T01:44:49.405Z,6.39
2019-03-18T01:45:49.628Z,6.20
2019-03-18T01:46:49.849Z,6.35
2019-03-18T01:47:50.068Z,6.24
2019-03-18T01:48:50.291Z,6.33
2019-03-18T01:49:50.515Z,6.33
2019-03-18T01:50:50.738Z,6.28
2019-03-18T01:51:50.959Z,6.31
2019-03-18T01:52:51.182Z,6.28
2019-03-18T01:53:51.405Z,6.31
2019-03-18T01:54:51.626Z,6.16
2019-03-18T01:55:51.852Z,6.30
2019-03-18T01:56:52.091Z,6.27
2019-03-18T01:57:52.296Z,6.30
2019-03-18T01:58:52.506Z,6.24
2019-03-18T01:59:52.727Z,6.22
2019-03-18T02:00:52.953Z,6.31
2019-03-18T02:01:53.171Z,6.27
2019-03-18T02:02:53.394Z,6.31
2019-03-18T02:03:53.620Z,6.36
2019-03-18T02:04:53.840Z,6.28
2019-03-18T02:05:54.060Z,6.36
2019-03-18T02:06:54.284Z,6.38
2019-03-18T02:07:54.505Z,6.30
2019-03-18T02:08:54.729Z,6.33
2019-03-18T02:09:54.952Z,6.28
2019-03-18T02:10:55.174Z,6.33
2019-03-18T02:11:55.396Z,6.41
2019-03-18T02:12:55.619Z,6.28
2019-03-18T02:13:55.838Z,6.38
2019-03-18T02:14:56.063Z,6.42
2019-03-18T02:15:56.287Z,6.31
2019-03-18T02:16:56.505Z,6.38
2019-03-18T02:17:56.728Z,6.39
2019-03-18T02:18:56.951Z,6.35
2019-03-18T02:19:57.174Z,6.38
2019-03-18T02:20:57.394Z,6.36
2019-03-18T02:21:57.619Z,6.33
2019-03-18T02:22:57.842Z,6.30
2019-03-18T02:23:58.063Z,6.38
2019-03-18T02:24:58.288Z,6.35
2019-03-18T02:25:58.507Z,6.36
2019-03-18T02:26:58.732Z,6.42
2019-03-18T02:27:58.952Z,6.46
2019-03-18T02:28:59.175Z,6.31
2019-03-18T02:29:59.401Z,6.41
2019-03-18T02:30:59.620Z,6.48
2019-03-18T02:31:59.849Z,6.44
2019-03-18T02:33:00.065Z,6.42
2019-03-18T02:34:00.309Z,6.54
2019-03-18T02:35:00.517Z,6.42
2019-03-18T02:36:00.736Z,6.44
2019-03-18T02:37:00.960Z,6.39
2019-03-18T02:38:01.184Z,6.38
2019-03-18T02:39:01.407Z,6.39
2019-03-18T02:40:01.630Z,6.41
2019-03-18T02:41:01.851Z,6.45
2019-03-18T02:42:02.072Z,6.45
2019-03-18T02:43:02.296Z,6.39
2019-03-18T02:44:02.520Z,6.46
2019-03-18T02:45:02.772Z,6.42
2019-03-18T02:46:10.164Z,6.42
2019-03-18T02:47:03.280Z,6.46
2019-03-18T02:48:03.409Z,6.63
2019-03-18T02:49:03.633Z,6.51
2019-03-18T02:50:03.856Z,6.46
2019-03-18T02:51:04.080Z,6.44
2019-03-18T02:52:04.303Z,6.42
2019-03-18T02:53:04.527Z,6.41
2019-03-18T02:54:04.751Z,6.36
2019-03-18T02:55:04.978Z,6.28
2019-03-18T02:56:05.202Z,6.33
2019-03-18T02:57:05.415Z,6.33
2019-03-18T02:58:05.637Z,6.28
2019-03-18T02:59:05.864Z,6.41
2019-03-18T03:00:06.087Z,6.36
2019-03-18T03:01:06.310Z,6.38
2019-03-18T03:02:06.543Z,6.31
2019-03-18T03:03:06.757Z,6.46
2019-03-18T03:04:06.976Z,6.27
2019-03-18T03:05:07.206Z,6.39
2019-03-18T03:06:07.425Z,6.39
2019-03-18T03:07:07.645Z,6.39
2019-03-18T03:08:07.875Z,6.38
2019-03-18T03:09:08.088Z,6.46
2019-03-18T03:10:08.328Z,6.42
2019-03-18T03:11:08.531Z,6.39
2019-03-18T03:12:08.760Z,6.42
2019-03-18T03:13:08.977Z,6.41
2019-03-18T03:14:09.207Z,6.36
2019-03-18T03:15:09.423Z,6.41
2019-03-18T03:16:25.064Z,6.35
2019-03-18T03:17:09.868Z,6.42
2019-03-18T03:18:10.094Z,6.28
2019-03-18T03:19:10.314Z,6.41
2019-03-18T03:20:10.541Z,6.36
2019-03-18T03:21:10.760Z,6.38
2019-03-18T03:22:10.982Z,6.42
2019-03-18T03:23:11.204Z,6.41
2019-03-18T03:24:11.422Z,6.54
2019-03-18T03:25:11.647Z,6.45
2019-03-18T03:26:11.868Z,6.59
2019-03-18T03:27:12.091Z,6.54
2019-03-18T03:28:12.316Z,6.57
2019-03-18T03:29:12.534Z,6.56
2019-03-18T03:30:12.758Z,6.60
2019-03-18T03:31:13.004Z,6.45
2019-03-18T03:32:13.203Z,6.44
2019-03-18T03:33:13.426Z,6.38
2019-03-18T03:34:14.501Z,6.42
2019-03-18T03:35:14.157Z,6.41
2019-03-18T03:36:14.093Z,6.44
2019-03-18T03:37:14.316Z,6.51
2019-03-18T03:38:14.543Z,6.38
2019-03-18T03:39:14.767Z,6.42
2019-03-18T03:40:14.986Z,6.42
2019-03-18T03:41:17.927Z,6.41
2019-03-18T03:42:15.429Z,6.36
2019-03-18T03:43:15.650Z,6.45
2019-03-18T03:44:15.872Z,6.24
2019-03-18T03:45:16.099Z,6.33
2019-03-18T03:46:16.372Z,6.36
2019-03-18T03:47:16.543Z,6.39
2019-03-18T03:48:16.766Z,6.33
2019-03-18T03:49:16.989Z,6.42
2019-03-18T03:50:17.215Z,6.33
2019-03-18T03:51:17.437Z,6.28
2019-03-18T03:52:17.654Z,6.28
2019-03-18T03:53:17.885Z,6.35
2019-03-18T03:54:18.122Z,6.35
2019-03-18T03:55:18.322Z,6.30
2019-03-18T03:56:18.546Z,6.26
2019-03-18T03:57:18.767Z,6.20
2019-03-18T03:58:18.993Z,6.24
2019-03-18T03:59:19.215Z,6.28
2019-03-18T04:00:19.440Z,6.12
2019-03-18T04:01:19.662Z,6.09
2019-03-18T04:02:19.886Z,6.08
2019-03-18T04:03:20.216Z,6.05
2019-03-18T04:04:20.330Z,6.02
2019-03-18T04:05:20.557Z,6.04
2019-03-18T04:06:20.773Z,6.14
2019-03-18T04:07:20.998Z,6.01
2019-03-18T04:08:21.223Z,6.17
2019-03-18T04:09:21.436Z,6.17
2019-03-18T04:10:21.661Z,6.12
2019-03-18T04:11:21.882Z,6.14
2019-03-18T04:12:22.129Z,6.27
2019-03-18T04:13:22.323Z,6.30
2019-03-18T04:14:22.546Z,6.31
2019-03-18T04:15:22.767Z,6.36
2019-03-18T04:16:22.989Z,6.28
2019-03-18T04:17:23.212Z,6.31
2019-03-18T04:18:23.450Z,6.28
2019-03-18T04:19:23.657Z,6.16
2019-03-18T04:20:23.879Z,6.31
2019-03-18T04:21:24.103Z,6.16
2019-03-18T04:22:24.327Z,6.22
2019-03-18T04:23:24.550Z,6.22
2019-03-18T04:24:24.769Z,6.17
2019-03-18T04:25:24.993Z,6.07
2019-03-18T04:26:25.217Z,6.01
2019-03-18T04:27:25.442Z,6.17
2019-03-18T04:28:25.660Z,5.99
2019-03-18T04:29:25.888Z,6.04
2019-03-18T04:30:26.107Z,6.07
2019-03-18T04:31:26.328Z,5.94
2019-03-18T04:32:26.552Z,6.01
2019-03-18T04:33:26.774Z,5.87
2019-03-18T04:34:26.996Z,5.84
2019-03-18T04:35:27.218Z,5.87
2019-03-18T04:36:27.439Z,5.84
2019-03-18T04:37:27.664Z,5.83
2019-03-18T04:38:27.881Z,5.75
2019-03-18T04:39:28.111Z,5.76
2019-03-18T04:40:28.330Z,5.73
2019-03-18T04:41:28.550Z,5.76
2019-03-18T04:42:28.772Z,5.73
2019-03-18T04:43:28.995Z,5.72
2019-03-18T04:44:29.221Z,5.66
2019-03-18T04:45:29.439Z,5.64
2019-03-18T04:46:29.663Z,5.56
2019-03-18T04:47:29.884Z,5.41
2019-03-18T04:48:30.106Z,5.51
2019-03-18T04:49:30.330Z,5.46
2019-03-18T04:50:30.550Z,5.51
2019-03-18T04:51:30.770Z,5.57
2019-03-18T04:52:30.996Z,5.53
2019-03-18T04:53:31.236Z,5.59
2019-03-18T04:54:31.443Z,5.47
2019-03-18T04:55:31.663Z,5.62
2019-03-18T04:56:31.885Z,5.62
2019-03-18T04:57:32.109Z,5.64
2019-03-18T04:58:32.330Z,5.62
2019-03-18T04:59:32.554Z,5.68
2019-03-18T05:00:32.774Z,5.69
2019-03-18T05:01:32.999Z,5.79
2019-03-18T05:02:33.222Z,5.68
2019-03-18T05:03:33.442Z,5.84
2019-03-18T05:04:33.665Z,5.80
2019-03-18T05:05:33.890Z,5.87
2019-03-18T05:06:34.106Z,5.79
2019-03-18T05:07:34.332Z,5.76
2019-03-18T05:08:34.556Z,5.87
2019-03-18T05:09:34.783Z,5.82
2019-03-18T05:10:35.001Z,5.79
2019-03-18T05:11:35.222Z,5.72
2019-03-18T05:12:35.445Z,5.51
2019-03-18T05:13:35.709Z,5.57
2019-03-18T05:14:35.888Z,5.65
2019-03-18T05:15:36.118Z,5.48
2019-03-18T05:16:36.333Z,5.53
2019-03-18T05:17:36.552Z,5.57
2019-03-18T05:18:36.865Z,5.50
2019-03-18T05:19:36.998Z,5.64
2019-03-18T05:20:37.225Z,5.59
2019-03-18T05:21:37.476Z,5.61
2019-03-18T05:22:37.701Z,5.66
2019-03-18T05:23:37.922Z,5.68
2019-03-18T05:24:38.150Z,5.75
2019-03-18T05:25:38.368Z,5.64
2019-03-18T05:26:38.589Z,5.72
2019-03-18T05:27:38.813Z,5.72
2019-03-18T05:28:39.037Z,5.68
2019-03-18T05:29:39.255Z,5.73
2019-03-18T05:30:39.478Z,5.61
2019-03-18T05:31:39.701Z,5.57
2019-03-18T05:32:39.939Z,5.62
2019-03-18T05:33:40.146Z,5.75
2019-03-18T05:34:40.367Z,5.59
2019-03-18T05:35:40.591Z,5.73
2019-03-18T05:36:40.815Z,5.66
2019-03-18T05:37:41.040Z,5.76
2019-03-18T05:38:41.255Z,5.62
2019-03-18T05:39:41.478Z,5.84
2019-03-18T05:40:41.701Z,5.82
2019-03-18T05:41:41.928Z,5.83
2019-03-18T05:42:42.146Z,5.87
2019-03-18T05:43:42.370Z,5.87
2019-03-18T05:44:42.587Z,5.99
2019-03-18T05:45:42.814Z,5.94
2019-03-18T05:46:43.036Z,5.94
2019-03-18T05:47:43.263Z,5.90
2019-03-18T05:48:43.481Z,5.94
2019-03-18T05:49:43.704Z,5.93
2019-03-18T05:50:43.927Z,6.05
2019-03-18T05:51:44.148Z,6.05
2019-03-18T05:52:44.371Z,6.09
2019-03-18T05:53:44.599Z,6.20
2019-03-18T05:54:44.814Z,6.19
2019-03-18T05:55:45.038Z,6.17
2019-03-18T05:56:45.260Z,6.22
2019-03-18T05:57:45.485Z,6.42
2019-03-18T05:58:45.712Z,6.28
2019-03-18T05:59:45.935Z,6.48
2019-03-18T06:00:46.163Z,6.39
2019-03-18T06:01:46.390Z,6.28
2019-03-18T06:02:47.133Z,6.39
2019-03-18T06:03:46.838Z,6.42
2019-03-18T06:04:47.061Z,6.35
2019-03-18T06:05:47.281Z,6.41
2019-03-18T06:06:47.503Z,6.38
2019-03-18T06:07:47.728Z,6.44
2019-03-18T06:08:47.950Z,6.45
2019-03-18T06:09:48.172Z,6.44
2019-03-18T06:10:48.399Z,6.36
2019-03-18T06:11:48.621Z,6.41
2019-03-18T06:12:48.847Z,6.46
2019-03-18T06:13:49.068Z,6.44
2019-03-18T06:14:49.291Z,6.62
2019-03-18T06:15:49.514Z,6.49
2019-03-18T06:16:49.741Z,6.54
2019-03-18T06:17:52.659Z,6.44
2019-03-18T06:18:50.181Z,6.45
2019-03-18T06:19:50.403Z,6.46
2019-03-18T06:20:50.627Z,6.46
2019-03-18T06:21:50.874Z,6.46
2019-03-18T06:22:51.024Z,6.44
2019-03-18T06:23:51.247Z,6.49
2019-03-18T06:24:51.471Z,6.54
2019-03-18T06:25:51.694Z,6.59
2019-03-18T06:26:51.916Z,6.56
2019-03-18T06:27:52.139Z,6.59
2019-03-18T06:28:52.362Z,6.56
2019-03-18T06:29:52.585Z,6.62
2019-03-18T06:30:52.808Z,6.70
2019-03-18T06:31:53.029Z,6.70
2019-03-18T06:32:53.250Z,6.78
2019-03-18T06:33:53.474Z,6.63
2019-03-18T06:34:53.697Z,6.64
2019-03-18T06:35:53.920Z,6.67
2019-03-18T06:36:54.149Z,6.77
2019-03-18T06:37:54.364Z,6.72
2019-03-18T06:38:54.589Z,6.69
2019-03-18T06:39:54.812Z,6.67
2019-03-18T06:40:55.037Z,6.74
2019-03-18T06:41:55.261Z,6.69
2019-03-18T06:42:55.485Z,6.67
2019-03-18T06:43:55.708Z,6.77
2019-03-18T06:44:55.930Z,6.69
2019-03-18T06:45:56.153Z,6.78
2019-03-18T06:46:56.377Z,6.78
2019-03-18T06:48:04.709Z,6.85
2019-03-18T06:48:56.823Z,6.82
2019-03-18T06:49:57.047Z,6.81
2019-03-18T06:50:57.268Z,6.78
2019-03-18T06:51:57.498Z,6.78
2019-03-18T06:52:57.713Z,6.81
2019-03-18T06:53:57.938Z,6.84
2019-03-18T06:54:58.160Z,6.81
2019-03-18T06:55:58.385Z,6.81
2019-03-18T06:56:58.603Z,6.81
2019-03-18T06:57:58.829Z,6.88
2019-03-18T06:58:59.052Z,6.84
2019-03-18T06:59:59.276Z,6.89
2019-03-18T07:00:59.498Z,6.89
2019-03-18T07:01:59.723Z,6.97
2019-03-18T07:02:59.946Z,7.05
2019-03-18T07:04:00.168Z,7.06
2019-03-18T07:05:00.389Z,7.11
2019-03-18T07:06:00.616Z,7.14
2019-03-18T07:07:00.836Z,7.17
2019-03-18T07:08:01.054Z,7.23
2019-03-18T07:09:01.281Z,7.20
2019-03-18T07:10:01.505Z,7.15
2019-03-18T07:11:01.725Z,7.17
2019-03-18T07:12:01.949Z,7.10
2019-03-18T07:13:02.171Z,7.10
2019-03-18T07:14:02.397Z,7.23
2019-03-18T07:15:02.619Z,7.11
2019-03-18T07:16:02.837Z,7.07
2019-03-18T07:17:03.072Z,7.07
2019-03-18T07:18:03.294Z,7.11
2019-03-18T07:19:03.523Z,7.13
2019-03-18T07:20:03.741Z,7.07
2019-03-18T07:21:03.966Z,7.14
2019-03-18T07:22:04.189Z,7.11
2019-03-18T07:23:04.416Z,7.14
2019-03-18T07:24:04.635Z,7.23
2019-03-18T07:25:04.856Z,7.18
2019-03-18T07:26:05.081Z,7.21
2019-03-18T07:27:05.306Z,7.14
2019-03-18T07:28:05.528Z,7.20
2019-03-18T07:29:05.752Z,7.20
2019-03-18T07:30:05.978Z,7.21
2019-03-18T07:31:06.200Z,7.18
2019-03-18T07:32:06.421Z,7.23
2019-03-18T07:33:06.642Z,7.23
2019-03-18T07:34:06.870Z,7.18
2019-03-18T07:35:07.088Z,7.29
2019-03-18T07:36:07.311Z,7.31
2019-03-18T07:37:07.535Z,7.31
2019-03-18T07:38:07.758Z,7.36
2019-03-18T07:39:07.984Z,7.36
2019-03-18T07:40:11.067Z,7.36
2019-03-18T07:41:08.432Z,7.40
2019-03-18T07:42:08.654Z,7.42
2019-03-18T07:43:08.883Z,7.47
2019-03-18T07:44:09.105Z,7.57
2019-03-18T07:45:09.330Z,7.58
2019-03-18T07:46:09.554Z,7.66
2019-03-18T07:47:09.864Z,7.63
2019-03-18T07:48:12.478Z,7.69
2019-03-18T07:49:10.292Z,7.76
2019-03-18T07:50:10.455Z,7.63
2019-03-18T07:51:10.686Z,7.72
2019-03-18T07:52:10.904Z,7.77
2019-03-18T07:53:11.127Z,7.79
2019-03-18T07:54:11.352Z,7.90
2019-03-18T07:55:11.575Z,7.79
2019-03-18T07:56:11.802Z,7.93
2019-03-18T07:57:12.025Z,7.87
2019-03-18T07:58:12.250Z,7.79
2019-03-18T07:59:12.474Z,7.88
2019-03-18T08:00:12.696Z,7.82
2019-03-18T08:11:24.496Z,8.05
2019-03-18T08:12:24.719Z,8.12
2019-03-18T08:13:24.944Z,8.16
2019-03-18T08:14:25.164Z,8.16
2019-03-18T08:15:25.387Z,8.12
2019-03-18T08:16:25.613Z,8.03
2019-03-18T08:17:25.834Z,8.01
2019-03-18T08:18:26.056Z,8.03
2019-03-18T08:19:26.278Z,7.97
2019-03-18T08:20:26.507Z,7.94
2019-03-18T08:21:26.727Z,7.97
2019-03-18T08:22:26.950Z,7.93
2019-03-18T08:23:27.173Z,7.91
2019-03-18T08:24:27.396Z,7.80
2019-03-18T08:25:27.619Z,7.93
2019-03-18T08:26:27.841Z,7.80
2019-03-18T08:27:28.067Z,7.80
2019-03-18T08:28:28.288Z,7.80
2019-03-18T08:29:28.518Z,7.90
2019-03-18T08:30:28.739Z,7.82
2019-03-18T08:31:28.962Z,7.77
2019-03-18T08:32:29.185Z,7.93
2019-03-18T08:33:29.408Z,7.87
2019-03-18T08:34:29.632Z,7.80
2019-03-18T08:35:29.856Z,7.90
2019-03-18T08:36:30.083Z,7.90
2019-03-18T08:37:30.302Z,7.94
2019-03-18T08:38:30.529Z,8.00
2019-03-18T08:39:30.752Z,8.05
2019-03-18T08:40:30.974Z,8.00
2019-03-18T08:41:31.199Z,7.94
2019-03-18T08:42:31.421Z,7.88
2019-03-18T08:43:31.637Z,7.85
2019-03-18T08:44:31.865Z,7.97
2019-03-18T08:45:32.087Z,7.93
2019-03-18T08:46:32.311Z,7.94
2019-03-18T08:47:32.538Z,7.91
2019-03-18T08:48:32.762Z,7.91
2019-03-18T08:49:32.980Z,7.97
2019-03-18T08:50:33.205Z,8.08
2019-03-18T08:51:33.427Z,8.20
2019-03-18T08:52:33.648Z,8.27
2019-03-18T08:53:33.873Z,8.33
2019-03-18T08:54:34.097Z,8.30
2019-03-18T08:55:34.319Z,8.34
2019-03-18T08:56:34.543Z,8.41
2019-03-18T08:57:34.763Z,8.42
2019-03-18T08:58:34.991Z,8.52
2019-03-18T08:59:35.212Z,8.61
2019-03-18T09:00:35.435Z,8.63
2019-03-18T09:01:35.657Z,8.48
2019-03-18T09:02:35.881Z,8.55
2019-03-18T09:03:36.105Z,8.56
2019-03-18T09:04:36.329Z,8.61
2019-03-18T09:05:36.706Z,8.71
2019-03-18T09:06:36.777Z,8.81
2019-03-18T09:07:37.002Z,8.85
2019-03-18T09:08:37.224Z,8.89
2019-03-18T09:09:37.453Z,8.84
2019-03-18T09:10:37.673Z,8.88
2019-03-18T09:11:37.896Z,8.97
2019-03-18T09:12:38.122Z,8.92
2019-03-18T09:13:38.346Z,8.99
2019-03-18T09:14:38.569Z,9.04
2019-03-18T09:15:38.794Z,9.13
2019-03-18T09:16:39.017Z,9.21
2019-03-18T09:17:39.250Z,9.02
2019-03-18T09:18:39.470Z,8.99
2019-03-18T09:19:39.691Z,8.92
2019-03-18T09:20:39.913Z,8.92
2019-03-18T09:21:40.136Z,8.87
2019-03-18T09:22:40.364Z,8.79
2019-03-18T09:23:40.587Z,8.85
2019-03-18T09:24:40.810Z,8.73
2019-03-18T09:25:41.032Z,8.85
2019-03-18T09:26:41.258Z,8.89
2019-03-18T09:27:41.482Z,8.88
2019-03-18T09:28:41.705Z,8.94
2019-03-18T09:29:41.929Z,8.92
2019-03-18T09:30:42.156Z,9.06
2019-03-18T09:31:42.388Z,9.19
2019-03-18T09:32:42.602Z,9.06
2019-03-18T09:33:42.829Z,9.14
2019-03-18T09:34:43.050Z,9.14
2019-03-18T09:35:43.273Z,9.25
2019-03-18T09:36:43.498Z,9.50
2019-03-18T09:37:43.720Z,9.51
2019-03-18T09:38:43.947Z,9.54
2019-03-18T09:39:44.165Z,9.65
2019-03-18T09:40:44.389Z,9.66
2019-03-18T09:41:44.614Z,9.79
2019-03-18T09:42:44.838Z,9.99
2019-03-18T09:43:45.067Z,9.99
2019-03-18T09:44:45.287Z,9.97
2019-03-18T09:45:45.517Z,10.10
2019-03-18T09:46:45.736Z,10.15
2019-03-18T09:47:45.959Z,10.28
2019-03-18T09:48:46.183Z,10.31
2019-03-18T09:49:46.408Z,10.34
2019-03-18T09:50:46.628Z,10.33
2019-03-18T09:51:46.855Z,10.15
2019-03-18T09:52:47.082Z,10.17
2019-03-18T09:53:47.306Z,10.15
2019-03-18T09:54:47.527Z,10.10
2019-03-18T09:55:47.749Z,10.20
2019-03-18T09:56:47.979Z,10.15
2019-03-18T09:57:48.202Z,10.07
2019-03-18T09:58:48.426Z,10.04
2019-03-18T09:59:48.699Z,10.01
2019-03-18T10:00:48.883Z,9.84
2019-03-18T10:01:49.102Z,9.83
2019-03-18T10:02:49.331Z,9.82
2019-03-18T10:03:49.551Z,9.87
2019-03-18T10:04:49.782Z,9.97
2019-03-18T10:05:50.003Z,9.92
2019-03-18T10:06:50.229Z,9.91
2019-03-18T10:07:50.455Z,9.99
2019-03-18T10:08:50.677Z,10.09
2019-03-18T10:09:50.904Z,10.07
2019-03-18T10:10:51.126Z,10.13
2019-03-18T10:11:51.352Z,10.17
2019-03-18T10:12:51.578Z,10.28
2019-03-18T10:13:51.802Z,10.28
2019-03-18T10:14:52.032Z,10.20
2019-03-18T10:15:52.255Z,10.17
2019-03-18T10:16:52.479Z,10.23
2019-03-18T10:17:52.704Z,10.20
2019-03-18T10:18:52.938Z,10.12
2019-03-18T10:19:53.680Z,10.28
2019-03-18T10:20:53.388Z,10.34
2019-03-18T10:21:53.611Z,10.35
2019-03-18T10:22:53.837Z,10.34
2019-03-18T10:23:54.064Z,10.44
2019-03-18T10:24:54.288Z,10.51
2019-03-18T10:25:54.630Z,10.53
2019-03-18T10:26:54.754Z,10.61
2019-03-18T10:27:54.978Z,10.74
2019-03-18T10:28:55.202Z,10.84
2019-03-18T10:29:55.426Z,10.72
2019-03-18T10:30:55.650Z,10.68
2019-03-18T10:31:55.873Z,10.72
2019-03-18T10:32:56.100Z,10.82
2019-03-18T10:33:56.326Z,11.00
2019-03-18T10:34:56.551Z,11.12
2019-03-18T10:35:56.774Z,11.18
2019-03-18T10:36:57.000Z,11.19
2019-03-18T10:37:57.224Z,11.00
2019-03-18T10:38:57.449Z,11.15
2019-03-18T10:39:57.675Z,10.94
2019-03-18T10:40:59.685Z,10.97
2019-03-18T10:41:58.129Z,11.00
2019-03-18T10:42:58.353Z,11.02
2019-03-18T10:43:58.576Z,11.12
2019-03-18T10:44:58.801Z,11.23
2019-03-18T10:45:59.027Z,11.18
2019-03-18T10:46:59.253Z,11.17
2019-03-18T10:47:59.476Z,11.17
2019-03-18T10:48:59.700Z,11.12
2019-03-18T10:49:59.926Z,11.02
2019-03-18T10:51:00.151Z,11.02
2019-03-18T10:52:00.394Z,10.84
2019-03-18T10:53:00.605Z,10.60
2019-03-18T10:54:00.832Z,10.38
2019-03-18T10:55:01.063Z,10.05
2019-03-18T10:56:07.838Z,10.15
2019-03-18T10:57:01.503Z,10.04
2019-03-18T10:58:01.730Z,9.98
2019-03-18T10:59:01.956Z,9.89
2019-03-18T11:00:02.191Z,9.99
2019-03-18T11:01:02.407Z,9.86
2019-03-18T11:02:02.627Z,9.77
2019-03-18T11:03:02.857Z,9.79
2019-03-18T11:04:03.079Z,9.77
2019-03-18T11:05:03.303Z,9.82
2019-03-18T11:06:03.526Z,9.82
2019-03-18T11:07:03.758Z,9.98
2019-03-18T11:08:03.981Z,9.95
2019-03-18T11:09:04.208Z,9.91
2019-03-18T11:10:04.432Z,9.87
2019-03-18T11:11:04.657Z,9.86
2019-03-18T11:12:04.886Z,9.89
2019-03-18T11:13:05.105Z,9.87
2019-03-18T11:14:05.330Z,9.98
2019-03-18T11:15:05.555Z,10.01
2019-03-18T11:16:05.782Z,9.99
2019-03-18T11:17:06.004Z,10.07
2019-03-18T11:18:06.236Z,9.95
2019-03-18T11:19:06.451Z,9.95
2019-03-18T11:20:06.677Z,10.05
2019-03-18T11:21:06.903Z,10.09
2019-03-18T11:22:07.132Z,9.99
2019-03-18T11:23:07.358Z,10.12
2019-03-18T11:24:07.575Z,10.20
2019-03-18T11:25:07.804Z,10.16
2019-03-18T11:26:08.025Z,10.34
2019-03-18T11:27:08.252Z,10.30
2019-03-18T11:28:08.479Z,10.34
2019-03-18T11:29:08.710Z,10.41
2019-03-18T11:30:08.933Z,10.35
2019-03-18T11:31:09.158Z,10.49
2019-03-18T11:32:09.384Z,10.46
2019-03-18T11:33:09.612Z,10.64
2019-03-18T11:34:09.835Z,10.57
2019-03-18T11:35:10.060Z,10.57
2019-03-18T11:36:10.284Z,10.57
2019-03-18T11:37:10.506Z,10.69
2019-03-18T11:38:10.744Z,10.64
2019-03-18T11:39:10.959Z,10.63
2019-03-18T11:40:11.182Z,10.57
2019-03-18T11:41:11.406Z,10.67
2019-03-18T11:42:11.633Z,10.64
2019-03-18T11:43:11.854Z,10.75
2019-03-18T11:44:12.079Z,10.86
2019-03-18T11:45:12.309Z,10.97
2019-03-18T11:46:12.530Z,11.00
2019-03-18T11:47:12.752Z,11.18
2019-03-18T11:48:12.980Z,11.30
2019-03-18T11:49:13.200Z,11.36
2019-03-18T11:50:13.426Z,11.52
2019-03-18T11:51:13.651Z,11.66
2019-03-18T11:52:13.878Z,11.66
2019-03-18T11:53:14.850Z,11.65
2019-03-18T11:54:14.359Z,11.59
2019-03-18T11:55:14.553Z,11.62
2019-03-18T11:56:14.777Z,11.52
2019-03-18T11:57:15.000Z,11.44
2019-03-18T11:58:15.225Z,11.37
2019-03-18T11:59:15.452Z,11.33
2019-03-18T12:00:15.675Z,11.27
2019-03-18T12:01:15.902Z,11.04
2019-03-18T12:02:27.242Z,10.81
2019-03-18T12:03:16.356Z,10.74
2019-03-18T12:04:16.581Z,10.51
2019-03-18T12:05:16.811Z,10.51
2019-03-18T12:06:17.031Z,10.53
2019-03-18T12:07:17.257Z,10.51
2019-03-18T12:08:17.483Z,10.59
2019-03-18T12:09:17.709Z,10.57
2019-03-18T12:10:17.949Z,10.57
2019-03-18T12:11:18.159Z,10.72
2019-03-18T12:12:18.419Z,10.68
2019-03-18T12:13:18.614Z,10.69
2019-03-18T12:14:18.840Z,10.61
2019-03-18T12:15:21.401Z,10.63
2019-03-18T12:16:19.293Z,10.63
2019-03-18T12:17:19.520Z,10.63
2019-03-18T12:18:19.745Z,10.61
2019-03-18T12:19:22.976Z,10.64
2019-03-18T12:20:24.646Z,10.69
2019-03-18T12:21:20.420Z,10.67
2019-03-18T12:22:20.646Z,10.76
2019-03-18T12:23:20.872Z,10.74
2019-03-18T12:24:21.105Z,10.89
2019-03-18T12:25:21.331Z,11.15
2019-03-18T12:26:21.556Z,11.15
2019-03-18T12:27:21.785Z,11.25
2019-03-18T12:28:22.011Z,11.23
2019-03-18T12:29:22.237Z,11.29
2019-03-18T12:30:22.460Z,11.37
2019-03-18T12:31:22.688Z,11.36
2019-03-18T12:32:22.911Z,11.32
2019-03-18T12:33:23.137Z,11.32
2019-03-18T12:34:23.361Z,11.44
2019-03-18T12:35:23.576Z,11.17
2019-03-18T12:36:23.799Z,11.12
2019-03-18T12:37:24.018Z,10.92
2019-03-18T12:38:24.243Z,10.76
2019-03-18T12:39:24.902Z,10.64
2019-03-18T12:40:24.690Z,10.41
2019-03-18T12:41:24.919Z,10.38
2019-03-18T12:42:25.135Z,10.31
2019-03-18T12:43:25.361Z,10.17
2019-03-18T12:44:25.586Z,10.23
2019-03-18T12:45:25.810Z,10.13
2019-03-18T12:46:26.038Z,10.05
2019-03-18T12:47:26.262Z,9.95
2019-03-18T12:48:26.491Z,9.87
2019-03-18T12:49:26.727Z,9.92
2019-03-18T12:50:55.048Z,9.83
2019-03-18T12:51:27.181Z,9.77
2019-03-18T12:52:27.398Z,9.79
2019-03-18T12:53:27.621Z,9.77
2019-03-18T12:54:27.845Z,9.86
2019-03-18T12:55:28.073Z,9.87
2019-03-18T12:56:28.294Z,9.83
2019-03-18T12:57:28.520Z,9.91
2019-03-18T12:58:28.746Z,10.02
2019-03-18T12:59:28.970Z,10.01
2019-03-18T13:00:29.198Z,10.19
2019-03-18T13:01:30.123Z,10.12
2019-03-18T13:02:29.645Z,10.20
2019-03-18T13:03:29.866Z,10.23
2019-03-18T13:04:30.092Z,10.17
2019-03-18T13:05:30.316Z,10.09
2019-03-18T13:06:33.379Z,10.15
2019-03-18T13:07:30.765Z,10.28
2019-03-18T13:08:31.020Z,10.34
2019-03-18T13:09:31.219Z,10.26
2019-03-18T13:10:31.445Z,10.19
2019-03-18T13:11:31.673Z,10.20
2019-03-18T13:12:31.894Z,10.17
2019-03-18T13:13:32.117Z,10.23
2019-03-18T13:14:32.342Z,10.23
2019-03-18T13:15:32.569Z,10.34
2019-03-18T13:16:32.797Z,10.34
2019-03-18T13:17:33.029Z,10.42
2019-03-18T13:18:33.245Z,10.35
2019-03-18T13:19:33.470Z,10.30
2019-03-18T13:20:33.691Z,10.44
2019-03-18T13:21:33.913Z,10.42
2019-03-18T13:22:34.138Z,10.54
2019-03-18T13:23:34.362Z,10.48
2019-03-18T13:24:34.610Z,10.56
2019-03-18T13:25:34.821Z,10.53